createdAt,value
2018-09-14T00:01:57.853Z,16.63
2018-09-14T00:04:26.571Z,17.93
2018-09-14T00:06:55.432Z,19.30
2018-09-14T00:09:24.349Z,18.87
2018-09-14T00:11:53.009Z,18.13
2018-09-14T00:14:21.915Z,19.03
2018-09-14T00:16:50.674Z,19.27
2018-09-14T00:19:19.368Z,19.00
2018-09-14T00:21:48.053Z,19.50
2018-09-14T00:24:16.730Z,19.67
2018-09-14T00:26:45.450Z,19.03
2018-09-14T00:29:14.150Z,18.60
2018-09-14T00:31:42.810Z,19.07
2018-09-14T00:34:11.478Z,20.20
2018-09-14T00:36:40.223Z,19.37
2018-09-14T00:39:10.263Z,19.13
2018-09-14T00:41:39.494Z,19.17
2018-09-14T00:44:08.210Z,19.53
2018-09-14T00:46:36.853Z,18.63
2018-09-14T00:49:05.949Z,19.10
2018-09-14T00:51:34.686Z,20.10
2018-09-14T00:54:03.901Z,20.97
2018-09-14T00:56:32.859Z,19.50
2018-09-14T00:59:01.506Z,18.77
2018-09-14T01:01:30.173Z,19.47
2018-09-14T01:03:59.161Z,20.03
2018-09-14T01:06:28.152Z,18.70
2018-09-14T01:08:56.935Z,19.53
2018-09-14T01:11:25.930Z,17.83
2018-09-14T01:13:54.737Z,18.53
2018-09-14T01:16:23.810Z,18.60
2018-09-14T01:18:52.545Z,17.97
2018-09-14T01:21:21.242Z,18.50
2018-09-14T01:23:50.371Z,18.20
2018-09-14T01:26:18.993Z,17.90
2018-09-14T01:28:47.901Z,19.40
2018-09-14T01:31:16.573Z,19.73
2018-09-14T01:33:45.555Z,19.10
2018-09-14T01:36:14.306Z,19.40
2018-09-14T01:38:42.990Z,18.73
2018-09-14T01:41:11.813Z,17.87
2018-09-14T01:43:40.875Z,19.43
2018-09-14T01:46:09.728Z,18.97
2018-09-14T01:48:38.347Z,20.27
2018-09-14T01:51:07.042Z,20.73
2018-09-14T01:53:35.791Z,20.43
2018-09-14T01:56:04.525Z,19.70
2018-09-14T01:58:33.239Z,20.07
2018-09-14T02:01:01.947Z,18.70
2018-09-14T02:03:30.787Z,19.87
2018-09-14T02:05:59.445Z,19.37
2018-09-14T02:08:28.153Z,19.37
2018-09-14T02:10:56.816Z,19.53
2018-09-14T02:13:25.494Z,19.83
2018-09-14T02:15:54.233Z,19.13
2018-09-14T02:18:22.890Z,19.63
2018-09-14T02:20:51.582Z,20.13
2018-09-14T02:23:20.257Z,19.73
2018-09-14T02:25:48.960Z,19.60
2018-09-14T02:28:17.671Z,18.57
2018-09-14T02:30:46.396Z,19.87
2018-09-14T02:33:15.197Z,20.50
2018-09-14T02:35:43.901Z,20.40
2018-09-14T02:38:12.941Z,19.73
2018-09-14T02:40:41.622Z,17.80
2018-09-14T02:43:10.417Z,19.17
2018-09-14T02:45:39.115Z,18.27
2018-09-14T02:48:07.927Z,17.87
2018-09-14T02:50:36.608Z,18.33
2018-09-14T02:53:05.683Z,17.27
2018-09-14T02:55:34.404Z,16.60
2018-09-14T02:58:03.364Z,18.43
2018-09-14T03:00:32.022Z,16.40
2018-09-14T03:03:00.771Z,16.17
2018-09-14T03:05:29.464Z,17.73
2018-09-14T03:07:58.151Z,17.33
2018-09-14T03:10:26.856Z,17.37
2018-09-14T03:12:55.587Z,16.90
2018-09-14T03:15:24.252Z,17.77
2018-09-14T03:17:52.980Z,18.83
2018-09-14T03:20:21.659Z,17.87
2018-09-14T03:22:50.369Z,17.80
2018-09-14T03:25:19.036Z,17.57
2018-09-14T03:27:47.775Z,20.10
2018-09-14T03:30:16.555Z,18.67
2018-09-14T03:32:45.300Z,17.93
2018-09-14T03:35:13.956Z,18.93
2018-09-14T03:37:42.703Z,18.97
2018-09-14T03:40:11.531Z,18.80
2018-09-14T03:42:40.309Z,17.87
2018-09-14T03:45:09.028Z,17.73
2018-09-14T03:47:37.758Z,16.90
2018-09-14T03:50:06.540Z,17.40
2018-09-14T03:52:35.275Z,17.53
2018-09-14T03:55:04.008Z,17.63
2018-09-14T03:57:33.629Z,18.13
2018-09-14T04:00:02.353Z,17.07
2018-09-14T04:02:31.119Z,16.67
2018-09-14T04:04:59.817Z,16.43
2018-09-14T04:07:28.571Z,17.60
2018-09-14T04:09:57.798Z,17.47
2018-09-14T04:12:26.487Z,17.37
2018-09-14T04:14:55.203Z,16.67
2018-09-14T04:17:23.860Z,15.77
2018-09-14T04:19:52.597Z,17.20
2018-09-14T04:22:21.316Z,16.70
2018-09-14T04:24:50.065Z,16.53
2018-09-14T04:27:18.773Z,17.13
2018-09-14T04:29:47.453Z,15.40
2018-09-14T04:32:16.285Z,16.07
2018-09-14T04:34:44.948Z,17.00
2018-09-14T04:37:13.644Z,15.97
2018-09-14T04:39:42.430Z,15.63
2018-09-14T04:42:11.111Z,16.70
2018-09-14T04:44:39.868Z,16.93
2018-09-14T04:47:08.854Z,17.23
2018-09-14T04:49:37.636Z,16.70
2018-09-14T04:52:06.365Z,16.60
2018-09-14T04:54:35.118Z,16.63
2018-09-14T04:57:04.206Z,15.73
2018-09-14T04:59:32.904Z,18.07
2018-09-14T05:02:01.576Z,18.97
2018-09-14T05:04:30.398Z,19.57
2018-09-14T05:06:59.071Z,19.83
2018-09-14T05:09:27.815Z,19.93
2018-09-14T05:11:56.521Z,19.50
2018-09-14T05:14:25.752Z,19.67
2018-09-14T05:16:54.724Z,17.13
2018-09-14T05:19:23.420Z,18.93
2018-09-14T05:21:52.112Z,17.67
2018-09-14T05:24:21.053Z,19.80
2018-09-14T05:26:49.784Z,19.03
2018-09-14T05:29:18.642Z,17.90
2018-09-14T05:31:47.307Z,17.10
2018-09-14T05:34:16.113Z,17.43
2018-09-14T05:36:45.173Z,17.40
2018-09-14T05:39:13.924Z,18.27
2018-09-14T05:41:42.986Z,17.30
2018-09-14T05:44:11.777Z,14.53
2018-09-14T05:46:40.505Z,16.50
2018-09-14T05:49:09.396Z,15.13
2018-09-14T05:51:38.074Z,15.97
2018-09-14T05:54:06.880Z,15.63
2018-09-14T05:56:35.584Z,15.37
2018-09-14T05:59:04.312Z,15.27
2018-09-14T06:01:33.356Z,16.53
2018-09-14T06:04:02.072Z,15.97
2018-09-14T06:06:31.270Z,14.93
2018-09-14T06:09:00.561Z,14.93
2018-09-14T06:11:29.269Z,13.83
2018-09-14T06:13:57.951Z,13.87
2018-09-14T06:16:26.693Z,13.93
2018-09-14T06:18:55.426Z,12.60
2018-09-14T06:21:24.171Z,13.00
2018-09-14T06:23:53.467Z,11.80
2018-09-14T06:26:22.381Z,13.37
2018-09-14T06:28:51.092Z,15.13
2018-09-14T06:31:19.789Z,16.47
2018-09-14T06:33:48.512Z,16.63
2018-09-14T06:36:17.157Z,19.13
2018-09-14T06:38:45.908Z,18.53
2018-09-14T06:41:14.393Z,16.83
2018-09-14T06:43:42.915Z,19.23
2018-09-14T06:46:12.764Z,17.27
2018-09-14T06:48:41.303Z,18.20
2018-09-14T06:51:10.556Z,17.73
2018-09-14T06:53:39.009Z,17.80
2018-09-14T06:56:07.452Z,18.00
2018-09-14T06:58:36.136Z,17.10
2018-09-14T07:01:04.812Z,16.40
2018-09-14T07:03:33.582Z,15.73
2018-09-14T07:06:02.332Z,16.20
2018-09-14T07:08:31.098Z,15.63
2018-09-14T07:11:00.396Z,15.30
2018-09-14T07:13:29.161Z,15.33
2018-09-14T07:15:59.618Z,16.10
2018-09-14T07:18:30.567Z,16.03
2018-09-14T07:21:01.500Z,14.07
2018-09-14T07:23:30.374Z,14.40
2018-09-14T07:25:59.098Z,15.77
2018-09-14T07:28:28.001Z,16.47
2018-09-14T07:30:56.741Z,16.87
2018-09-14T07:33:25.453Z,17.27
2018-09-14T07:35:54.146Z,17.03
2018-09-14T07:38:22.948Z,16.93
2018-09-14T07:40:51.692Z,17.93
2018-09-14T07:43:20.390Z,16.40
2018-09-14T07:45:49.345Z,17.60
2018-09-14T07:48:18.106Z,17.87
2018-09-14T07:50:46.976Z,17.40
2018-09-14T07:53:15.628Z,19.07
2018-09-14T07:55:44.348Z,19.67
2018-09-14T07:58:13.096Z,18.70
2018-09-14T08:00:41.990Z,19.27
2018-09-14T08:03:10.792Z,19.50
2018-09-14T08:05:39.414Z,19.60
2018-09-14T08:08:08.109Z,18.53
2018-09-14T08:10:37.068Z,19.23
2018-09-14T08:13:06.679Z,20.67
2018-09-14T08:15:35.592Z,21.60
2018-09-14T08:18:04.295Z,21.10
2018-09-14T08:20:33.252Z,20.30
2018-09-14T08:23:02.398Z,20.50
2018-09-14T08:25:34.809Z,22.43
2018-09-14T08:28:09.435Z,20.40
2018-09-14T08:30:38.183Z,21.83
2018-09-14T08:33:06.874Z,21.20
2018-09-14T08:35:35.698Z,21.63
2018-09-14T08:38:04.564Z,20.17
2018-09-14T08:40:37.140Z,21.50
2018-09-14T08:43:05.927Z,21.10
2018-09-14T08:45:34.660Z,21.67
2018-09-14T08:48:03.444Z,21.17
2018-09-14T08:50:32.155Z,21.33
2018-09-14T08:53:00.851Z,19.80
2018-09-14T08:55:29.657Z,21.57
2018-09-14T08:57:58.913Z,20.43
2018-09-14T09:00:27.636Z,21.03
2018-09-14T09:02:57.461Z,20.97
2018-09-14T09:05:26.812Z,22.00
2018-09-14T09:07:55.551Z,22.77
2018-09-14T09:10:24.359Z,22.97
2018-09-14T09:12:53.049Z,21.40
2018-09-14T09:15:21.737Z,21.37
2018-09-14T09:17:50.517Z,23.20
2018-09-14T09:20:19.156Z,21.27
2018-09-14T09:22:47.876Z,20.63
2018-09-14T09:25:16.640Z,19.70
2018-09-14T09:27:45.539Z,21.10
2018-09-14T09:30:14.849Z,19.63
2018-09-14T09:32:43.592Z,18.97
2018-09-14T09:35:12.493Z,18.37
2018-09-14T09:37:41.279Z,18.70
2018-09-14T09:40:10.186Z,16.37
2018-09-14T09:42:39.261Z,17.27
2018-09-14T09:45:07.990Z,17.53
2018-09-14T09:47:36.904Z,17.23
2018-09-14T09:50:06.809Z,17.00
2018-09-14T09:52:37.493Z,17.63
2018-09-14T09:55:09.299Z,16.93
2018-09-14T09:57:42.368Z,16.47
2018-09-14T10:00:25.036Z,16.17
2018-09-14T10:03:02.273Z,16.60
2018-09-14T10:05:38.810Z,16.30
2018-09-14T10:08:09.231Z,15.77
2018-09-14T10:10:38.890Z,16.50
2018-09-14T10:13:09.618Z,15.57
2018-09-14T10:15:39.828Z,14.73
2018-09-14T10:18:09.907Z,14.43
2018-09-14T10:20:39.947Z,16.03
2018-09-14T10:23:09.432Z,15.57
2018-09-14T10:25:38.424Z,14.97
2018-09-14T10:28:15.082Z,16.20
2018-09-14T10:30:44.040Z,15.70
2018-09-14T10:33:12.680Z,13.73
2018-09-14T10:35:41.414Z,15.30
2018-09-14T10:38:10.192Z,13.47
2018-09-14T10:40:39.187Z,14.87
2018-09-14T10:43:08.206Z,15.23
2018-09-14T10:45:37.223Z,15.77
2018-09-14T10:48:07.782Z,15.60
2018-09-14T10:50:36.472Z,15.20
2018-09-14T10:53:05.247Z,15.07
2018-09-14T10:55:34.295Z,15.17
2018-09-14T10:58:03.013Z,14.83
2018-09-14T11:00:32.042Z,14.83
2018-09-14T11:03:00.769Z,16.37
2018-09-14T11:05:29.543Z,16.33
2018-09-14T11:07:58.246Z,14.90
2018-09-14T11:10:27.339Z,14.90
2018-09-14T11:12:56.077Z,13.63
2018-09-14T11:15:24.800Z,15.60
2018-09-14T11:17:53.819Z,15.03
2018-09-14T11:20:22.560Z,15.27
2018-09-14T11:22:51.295Z,14.63
2018-09-14T11:25:20.084Z,14.27
2018-09-14T11:27:48.985Z,13.47
2018-09-14T11:30:17.680Z,13.60
2018-09-14T11:32:46.448Z,13.23
2018-09-14T11:35:15.413Z,13.60
2018-09-14T11:37:44.203Z,13.23
2018-09-14T11:40:12.925Z,13.60
2018-09-14T11:42:41.689Z,14.57
2018-09-14T11:45:10.448Z,14.30
2018-09-14T11:47:39.179Z,13.07
2018-09-14T11:50:09.545Z,13.30
2018-09-14T11:52:38.563Z,12.27
2018-09-14T11:55:07.600Z,12.03
2018-09-14T11:57:36.357Z,12.83
2018-09-14T12:00:05.145Z,11.13
2018-09-14T12:02:34.131Z,12.80
2018-09-14T12:05:02.795Z,11.63
2018-09-14T12:07:36.268Z,12.77
2018-09-14T12:10:05.368Z,11.90
2018-09-14T12:12:34.403Z,11.07
2018-09-14T12:15:03.188Z,10.30
2018-09-14T12:17:32.655Z,10.20
2018-09-14T12:20:01.476Z,10.67
2018-09-14T12:22:31.474Z,11.07
2018-09-14T12:25:00.369Z,10.83
2018-09-14T12:27:29.099Z,12.57
2018-09-14T12:29:57.813Z,11.67
2018-09-14T12:32:26.552Z,11.77
2018-09-14T12:34:55.416Z,10.27
2018-09-14T12:37:24.119Z,10.07
2018-09-14T12:39:53.089Z,10.17
2018-09-14T12:42:22.510Z,9.67
2018-09-14T12:44:51.898Z,11.23
2018-09-14T12:47:20.723Z,10.00
2018-09-14T12:49:49.509Z,12.27
2018-09-14T12:52:18.256Z,11.20
2018-09-14T12:54:48.284Z,10.87
2018-09-14T12:57:17.073Z,10.93
2018-09-14T12:59:47.907Z,10.33
2018-09-14T13:02:16.728Z,9.97
2018-09-14T13:04:45.398Z,8.30
2018-09-14T13:07:14.033Z,7.67
2018-09-14T13:09:49.128Z,9.20
2018-09-14T13:12:17.877Z,8.10
2018-09-14T13:14:46.628Z,8.00
2018-09-14T13:17:15.281Z,8.07
2018-09-14T13:19:44.010Z,8.87
2018-09-14T13:22:12.853Z,8.73
2018-09-14T13:24:41.564Z,9.03
2018-09-14T13:27:10.997Z,9.23
2018-09-14T13:29:39.776Z,9.23
2018-09-14T13:32:09.039Z,9.13
2018-09-14T13:34:37.772Z,8.40
2018-09-14T13:37:06.480Z,8.83
2018-09-14T13:39:35.188Z,8.10
2018-09-14T13:42:03.907Z,8.70
2018-09-14T13:44:32.633Z,7.80
2018-09-14T13:47:01.298Z,7.13
2018-09-14T13:49:36.663Z,7.47
2018-09-14T13:52:05.352Z,7.73
2018-09-14T13:54:34.100Z,7.83
2018-09-14T13:57:02.791Z,6.77
2018-09-14T13:59:31.520Z,6.87
2018-09-14T14:02:01.277Z,7.60
2018-09-14T14:04:29.998Z,6.43
2018-09-14T14:07:00.029Z,7.17
2018-09-14T14:09:28.743Z,7.17
2018-09-14T14:11:57.457Z,8.03
2018-09-14T14:14:45.316Z,7.30
2018-09-14T14:17:14.082Z,7.53
2018-09-14T14:19:42.650Z,6.77
2018-09-14T14:22:11.322Z,6.90
2018-09-14T14:24:40.468Z,6.67
2018-09-14T14:27:09.172Z,6.50
2018-09-14T14:29:38.702Z,5.70
2018-09-14T14:32:07.633Z,4.80
2018-09-14T14:34:36.328Z,5.43
2018-09-14T14:37:05.161Z,4.40
2018-09-14T14:39:34.128Z,4.43
2018-09-14T14:42:02.908Z,5.60
2018-09-14T14:44:31.588Z,5.77
2018-09-14T14:47:00.507Z,4.43
2018-09-14T14:49:29.736Z,5.23
2018-09-14T14:52:00.357Z,5.07
2018-09-14T14:54:30.146Z,5.43
2018-09-14T14:56:58.879Z,4.70
2018-09-14T14:59:27.648Z,4.57
2018-09-14T15:01:57.041Z,4.33
2018-09-14T15:04:26.816Z,3.83
2018-09-14T15:06:57.672Z,3.60
2018-09-14T15:09:26.484Z,3.47
2018-09-14T15:12:07.457Z,3.53
2018-09-14T15:14:36.160Z,3.90
2018-09-14T15:17:04.906Z,3.57
2018-09-14T15:19:33.644Z,3.07
2018-09-14T15:22:02.429Z,2.80
2018-09-14T15:24:31.133Z,2.23
2018-09-14T15:26:59.808Z,2.80
2018-09-14T15:29:30.609Z,2.80
2018-09-14T15:32:00.368Z,2.70
2018-09-14T15:34:29.415Z,2.70
2018-09-14T15:36:58.181Z,2.53
2018-09-14T15:39:27.167Z,2.70
2018-09-14T15:41:55.892Z,2.50
2018-09-14T15:44:24.508Z,2.70
2018-09-14T15:46:53.186Z,2.73
2018-09-14T15:49:22.190Z,2.60
2018-09-14T15:51:51.562Z,2.60
2018-09-14T15:54:20.509Z,2.60
2018-09-14T15:56:49.453Z,2.40
2018-09-14T15:59:18.509Z,3.00
2018-09-14T16:01:47.395Z,2.57
2018-09-14T16:04:16.092Z,2.63
2018-09-14T16:06:44.760Z,2.50
2018-09-14T16:09:13.502Z,2.70
2018-09-14T16:11:42.336Z,2.70
2018-09-14T16:14:11.036Z,2.37
2018-09-14T16:16:39.822Z,2.60
2018-09-14T16:19:08.528Z,2.50
2018-09-14T16:21:37.231Z,2.77
2018-09-14T16:24:05.980Z,2.73
2018-09-14T16:26:35.044Z,2.10
2018-09-14T16:29:03.768Z,2.57
2018-09-14T16:31:32.486Z,2.53
2018-09-14T16:34:01.193Z,2.83
2018-09-14T16:36:29.872Z,2.70
2018-09-14T16:38:58.656Z,2.97
2018-09-14T16:41:27.407Z,2.60
2018-09-14T16:43:56.102Z,2.47
2018-09-14T16:46:24.756Z,2.63
2018-09-14T16:48:53.471Z,2.80
2018-09-14T16:51:22.457Z,3.03
2018-09-14T16:53:51.159Z,3.10
2018-09-14T16:56:19.854Z,2.63
2018-09-14T16:58:48.668Z,2.90
2018-09-14T17:01:17.395Z,2.43
2018-09-14T17:03:46.116Z,2.60
2018-09-14T17:06:14.784Z,3.17
2018-09-14T17:08:44.410Z,3.10
2018-09-14T17:11:13.137Z,3.10
2018-09-14T17:13:41.856Z,3.17
2018-09-14T17:16:10.520Z,2.97
2018-09-14T17:18:39.481Z,3.03
2018-09-14T17:21:08.206Z,3.10
2018-09-14T17:23:36.950Z,2.83
2018-09-14T17:26:05.942Z,3.30
2018-09-14T17:28:34.704Z,2.83
2018-09-14T17:31:03.520Z,4.23
2018-09-14T17:33:32.234Z,3.80
2018-09-14T17:36:02.310Z,4.10
2018-09-14T17:38:31.063Z,3.90
2018-09-14T17:40:59.785Z,3.67
2018-09-14T17:43:28.504Z,4.10
2018-09-14T17:45:57.189Z,3.90
2018-09-14T17:48:25.925Z,4.03
2018-09-14T17:50:54.671Z,4.00
2018-09-14T17:53:23.376Z,3.83
2018-09-14T17:55:52.039Z,4.10
2018-09-14T17:58:20.791Z,4.57
2018-09-14T18:00:49.872Z,4.07
2018-09-14T18:03:18.648Z,4.20
2018-09-14T18:05:47.351Z,4.00
2018-09-14T18:08:16.007Z,4.23
2018-09-14T18:10:45.042Z,3.83
2018-09-14T18:13:13.729Z,4.37
2018-09-14T18:15:42.408Z,4.17
2018-09-14T18:18:11.114Z,4.17
2018-09-14T18:20:39.816Z,4.63
2018-09-14T18:23:08.493Z,4.33
2018-09-14T18:25:37.227Z,4.83
2018-09-14T18:28:06.107Z,5.17
2018-09-14T18:30:34.773Z,4.80
2018-09-14T18:33:03.565Z,5.13
2018-09-14T18:35:32.647Z,5.10
2018-09-14T18:38:01.380Z,4.70
2018-09-14T18:40:30.141Z,5.50
2018-09-14T18:42:58.817Z,5.20
2018-09-14T18:45:27.534Z,4.70
2018-09-14T18:47:56.201Z,5.13
2018-09-14T18:50:25.002Z,5.00
2018-09-14T18:52:53.717Z,5.97
2018-09-14T18:55:22.505Z,5.60
2018-09-14T18:57:52.184Z,5.17
2018-09-14T19:00:20.900Z,5.53
2018-09-14T19:02:49.569Z,5.20
2018-09-14T19:05:18.612Z,5.73
2018-09-14T19:07:47.216Z,5.27
2018-09-14T19:10:18.730Z,6.20
2018-09-14T19:12:48.476Z,7.00
2018-09-14T19:15:18.488Z,6.10
2018-09-14T19:17:47.222Z,6.03
2018-09-14T19:20:15.933Z,5.83
2018-09-14T19:22:45.788Z,6.33
2018-09-14T19:25:14.804Z,5.67
2018-09-14T19:27:43.568Z,5.80
2018-09-14T19:30:12.647Z,5.90
2018-09-14T19:32:41.399Z,6.03
2018-09-14T19:35:10.609Z,7.20
2018-09-14T19:37:39.773Z,6.60
2018-09-14T19:40:08.447Z,7.13
2018-09-14T19:42:37.272Z,6.40
2018-09-14T19:45:06.504Z,6.13
2018-09-14T19:47:35.691Z,6.50
2018-09-14T19:50:04.795Z,6.80
2018-09-14T19:52:33.488Z,7.13
2018-09-14T19:55:02.392Z,6.40
2018-09-14T19:57:31.953Z,7.00
2018-09-14T20:00:02.139Z,6.30
2018-09-14T20:02:31.073Z,7.27
2018-09-14T20:05:00.161Z,6.47
2018-09-14T20:07:28.976Z,6.43
2018-09-14T20:09:58.110Z,6.60
2018-09-14T20:12:27.351Z,6.90
2018-09-14T20:14:56.201Z,6.77
2018-09-14T20:17:25.003Z,6.40
2018-09-14T20:19:53.703Z,6.07
2018-09-14T20:22:22.715Z,6.67
2018-09-14T20:24:51.606Z,6.70
2018-09-14T20:27:20.464Z,7.37
2018-09-14T20:29:49.209Z,11.37
2018-09-14T20:32:17.887Z,7.40
2018-09-14T20:34:46.600Z,7.47
2018-09-14T20:37:23.108Z,7.33
2018-09-14T20:39:51.744Z,11.70
2018-09-14T20:42:20.450Z,7.30
2018-09-14T20:44:50.320Z,8.03
2018-09-14T20:47:19.614Z,7.67
2018-09-14T20:49:49.060Z,10.77
2018-09-14T20:52:18.263Z,7.87
2018-09-14T20:54:47.944Z,6.87
2018-09-14T20:57:16.698Z,6.83
2018-09-14T20:59:45.692Z,6.73
2018-09-14T21:02:15.435Z,6.60
2018-09-14T21:04:44.079Z,6.93
2018-09-14T21:07:13.852Z,7.00
2018-09-14T21:09:42.840Z,6.73
2018-09-14T21:12:11.782Z,6.03
2018-09-14T21:14:40.658Z,6.80
2018-09-14T21:17:09.659Z,6.70
2018-09-14T21:19:38.428Z,6.07
2018-09-14T21:22:07.227Z,6.10
2018-09-14T21:24:36.188Z,6.23
2018-09-14T21:27:04.940Z,7.10
2018-09-14T21:29:33.892Z,6.90
2018-09-14T21:32:03.702Z,6.87
2018-09-14T21:34:33.304Z,7.53
2018-09-14T21:37:02.093Z,7.27
2018-09-14T21:39:31.005Z,7.03
2018-09-14T21:41:59.698Z,6.67
2018-09-14T21:44:31.209Z,7.33
2018-09-14T21:47:02.917Z,7.40
2018-09-14T21:49:31.654Z,7.00
2018-09-14T21:52:00.362Z,7.10
2018-09-14T21:54:29.130Z,6.83
2018-09-14T21:56:57.843Z,6.97
2018-09-14T21:59:26.554Z,7.03
2018-09-14T22:01:55.283Z,7.00
2018-09-14T22:04:23.993Z,7.10
2018-09-14T22:06:52.662Z,6.67
2018-09-14T22:09:21.520Z,6.60
2018-09-14T22:11:50.260Z,7.57
2018-09-14T22:14:18.942Z,7.43
2018-09-14T22:16:47.776Z,7.03
2018-09-14T22:19:16.437Z,7.50
2018-09-14T22:21:45.312Z,6.73
2018-09-14T22:24:13.975Z,6.83
2018-09-14T22:26:42.672Z,7.60
2018-09-14T22:29:11.411Z,7.47
2018-09-14T22:31:40.101Z,7.37
2018-09-14T22:34:08.794Z,7.33
2018-09-14T22:36:37.605Z,6.93
2018-09-14T22:39:08.421Z,6.67
2018-09-14T22:41:37.164Z,6.70
2018-09-14T22:44:05.900Z,6.83
2018-09-14T22:46:34.674Z,6.33
2018-09-14T22:49:03.606Z,6.47
2018-09-14T22:51:32.391Z,7.20
2018-09-14T22:54:01.061Z,6.67
2018-09-14T22:56:29.767Z,7.00
2018-09-14T22:58:58.416Z,7.33
2018-09-14T23:01:27.120Z,7.20
2018-09-14T23:03:55.767Z,6.87
2018-09-14T23:06:24.481Z,6.87
2018-09-14T23:08:53.168Z,7.50
2018-09-14T23:11:21.883Z,7.03
2018-09-14T23:13:50.607Z,7.50
2018-09-14T23:16:19.303Z,6.77
2018-09-14T23:18:47.986Z,6.50
2018-09-14T23:21:16.683Z,6.37
2018-09-14T23:23:45.373Z,6.83
2018-09-14T23:26:17.320Z,6.97
2018-09-14T23:28:46.056Z,5.80
2018-09-14T23:31:14.843Z,7.10
2018-09-14T23:33:43.494Z,7.53
2018-09-14T23:36:12.176Z,7.10
2018-09-14T23:38:41.052Z,6.83
2018-09-14T23:41:09.787Z,7.40
2018-09-14T23:43:38.444Z,6.87
2018-09-14T23:46:10.033Z,7.37
2018-09-14T23:48:39.700Z,7.43
2018-09-14T23:51:08.773Z,7.43
2018-09-14T23:53:37.432Z,6.17
2018-09-14T23:56:06.413Z,6.10
2018-09-14T23:58:35.125Z,5.73
